Sweet Lake, Louisiana
Current Conditions -  °F | °C
As of 7:25 AM on Sunday 21 Dec 2014 (Local Time) from KLCH Reporting Station
Haze Haze  
Wind Chill: 46°   Ceiling: 200
Heat Index: 46°   Visibility: 1.7mi
Dew Point: 45°   Wind: 0mph
Humidity: 96%   Direction: NA
Pressure: 30.14"   Gusts: NA
Location:  30.1766°N, 93.2305°W
Report Text: KLCH 211325Z 00000KT 1 3/4SM BR OVC002 08/07 A3014 RMK AO2 T00780072
Loading
Personal Weather Stations






























Interactive Weather Map New forecast layout! Learn more

10-Day Weather Forecast

Advertisements
Track Severe Weather on mobile